Time;durP1;ratioP1;P1;durP2;ratioP2;P2;SDS_P1;SDS_P2;PMS_P1;PMS_P2;Temp;Humidity;BMP_temperature;BMP_pressure;BME280_temperature;BME280_humidity;BME280_pressure;Samples;Min_cycle;Max_cycle;Signal;HPM_P1;HPM_P2
2023/11/03 00:00:00;;;;;;;1.20;0.73;;;16.20;66.00;;;;;;5135752;27;20263;-66
2023/11/03 00:02:26;;;;;;;1.23;0.50;;;16.10;66.10;;;;;;5135886;27;20168;-66
2023/11/03 00:04:52;;;;;;;1.73;0.75;;;16.10;66.00;;;;;;5136629;27;20654;-66
2023/11/03 00:07:18;;;;;;;1.45;0.50;;;16.10;66.30;;;;;;5135584;27;20639;-66
2023/11/03 00:09:44;;;;;;;0.60;0.40;;;16.10;66.20;;;;;;5136461;27;20703;-66
2023/11/03 00:12:10;;;;;;;5.65;0.88;;;16.10;66.10;;;;;;5136254;27;20168;-66
2023/11/03 00:14:36;;;;;;;1.30;0.50;;;16.10;66.40;;;;;;5135939;27;20536;-66
2023/11/03 00:17:01;;;;;;;1.88;0.55;;;16.10;66.30;;;;;;5136083;27;20196;-66
2023/11/03 00:19:27;;;;;;;2.58;0.60;;;16.10;66.40;;;;;;5136355;27;20208;-65
2023/11/03 00:21:53;;;;;;;1.25;0.85;;;16.10;66.10;;;;;;5135681;27;20165;-66
2023/11/03 00:24:19;;;;;;;2.45;0.63;;;16.00;66.20;;;;;;5135897;27;20177;-65
2023/11/03 00:26:45;;;;;;;1.25;0.60;;;16.10;66.20;;;;;;5135984;27;20172;-65
2023/11/03 00:29:10;;;;;;;1.02;0.60;;;16.00;65.90;;;;;;5135341;27;20172;-65
2023/11/03 00:31:37;;;;;;;1.30;0.60;;;16.00;66.20;;;;;;5135862;27;20645;-67
2023/11/03 00:34:05;;;;;;;1.55;0.50;;;16.00;66.30;;;;;;5117551;27;20173;-66
2023/11/03 00:36:31;;;;;;;0.80;0.60;;;16.00;66.10;;;;;;5135279;27;20179;-66
2023/11/03 00:38:58;;;;;;;2.00;0.90;;;16.00;66.10;;;;;;5136062;27;20216;-66
2023/11/03 00:41:23;;;;;;;1.88;0.90;;;16.00;66.30;;;;;;5135793;27;20627;-66
2023/11/03 00:43:50;;;;;;;0.82;0.60;;;16.00;66.20;;;;;;5133863;27;20180;-65
2023/11/03 00:46:16;;;;;;;1.55;0.60;;;16.00;66.50;;;;;;5135418;27;20211;-65
2023/11/03 00:48:42;;;;;;;0.70;0.63;;;16.00;66.50;;;;;;5135016;27;20323;-66
2023/11/03 00:51:08;;;;;;;1.88;0.57;;;16.00;66.50;;;;;;5135385;27;20251;-66
2023/11/03 00:53:37;;;;;;;1.45;0.68;;;16.00;66.40;;;;;;5135942;27;20632;-66
2023/11/03 00:56:06;;;;;;;1.88;0.60;;;16.00;66.30;;;;;;5134842;27;20173;-66
2023/11/03 00:58:35;;;;;;;0.85;0.50;;;16.00;66.30;;;;;;5135477;27;20220;-66
2023/11/03 01:01:06;;;;;;;0.65;0.45;;;16.00;66.40;;;;;;5135253;27;20255;-66
2023/11/03 01:03:32;;;;;;;0.85;0.55;;;16.00;66.40;;;;;;5134760;27;20180;-64
2023/11/03 01:05:58;;;;;;;1.15;0.57;;;16.00;66.40;;;;;;5135328;27;20638;-66
2023/11/03 01:08:23;;;;;;;0.93;0.60;;;15.90;66.40;;;;;;5135544;27;20202;-66
2023/11/03 01:10:49;;;;;;;2.22;0.80;;;16.00;66.40;;;;;;5134807;27;20544;-66
2023/11/03 01:13:16;;;;;;;0.85;0.70;;;15.90;66.40;;;;;;5134201;27;20638;-65
2023/11/03 01:15:43;;;;;;;0.50;0.50;;;15.90;66.50;;;;;;5135042;27;20259;-65
2023/11/03 01:18:09;;;;;;;0.68;0.60;;;15.90;66.30;;;;;;5134180;27;20208;-65
2023/11/03 01:20:35;;;;;;;0.85;0.70;;;15.90;66.20;;;;;;5135348;27;20172;-65
2023/11/03 01:23:01;;;;;;;0.98;0.52;;;16.00;66.40;;;;;;5135024;27;20173;-65
2023/11/03 01:25:28;;;;;;;1.55;0.50;;;15.90;66.40;;;;;;5134177;27;20587;-65
2023/11/03 01:27:55;;;;;;;1.50;0.50;;;15.90;66.30;;;;;;5135138;27;20176;-65
2023/11/03 01:30:20;;;;;;;0.95;0.70;;;15.90;66.40;;;;;;5134753;27;20180;-65
2023/11/03 01:32:46;;;;;;;1.70;0.68;;;15.90;66.40;;;;;;5134075;27;20615;-65
2023/11/03 01:35:12;;;;;;;0.80;0.50;;;15.90;66.30;;;;;;5134795;27;20179;-66
2023/11/03 01:37:38;;;;;;;1.63;0.70;;;15.90;66.40;;;;;;5134696;27;20223;-66
2023/11/03 01:40:08;;;;;;;2.78;0.70;;;15.90;65.90;;;;;;5133802;27;20219;-65
2023/11/03 01:42:34;;;;;;;0.80;0.80;;;15.90;66.30;;;;;;5134809;27;20173;-65
2023/11/03 01:45:00;;;;;;;1.25;0.60;;;15.90;66.30;;;;;;5133776;27;20176;-65
2023/11/03 01:47:25;;;;;;;1.35;0.80;;;15.90;67.30;;;;;;5134313;27;20179;-65
2023/11/03 01:49:51;;;;;;;0.65;0.57;;;15.90;66.20;;;;;;5134503;27;20187;-65
2023/11/03 01:52:16;;;;;;;1.38;0.50;;;15.90;66.40;;;;;;5133550;27;20176;-65
2023/11/03 01:54:42;;;;;;;0.75;0.63;;;15.90;66.40;;;;;;5134541;27;20175;-65
2023/11/03 01:57:07;;;;;;;1.92;0.70;;;15.90;66.40;;;;;;5116028;27;20508;-65
2023/11/03 01:59:33;;;;;;;1.02;0.60;;;15.90;66.40;;;;;;5098359;27;20689;-65
2023/11/03 02:01:59;;;;;;;0.73;0.55;;;15.80;66.40;;;;;;5134025;27;20619;-65
2023/11/03 02:04:24;;;;;;;1.15;0.55;;;15.90;66.50;;;;;;5116241;27;20177;-65
2023/11/03 02:06:50;;;;;;;0.75;0.50;;;15.80;66.30;;;;;;5133768;27;20168;-65
2023/11/03 02:09:16;;;;;;;1.20;0.60;;;15.80;66.40;;;;;;5134000;27;20175;-66
2023/11/03 02:11:43;;;;;;;1.00;0.47;;;15.80;66.40;;;;;;5134487;27;20176;-66
2023/11/03 02:14:09;;;;;;;1.42;0.70;;;15.80;66.30;;;;;;5133120;27;20256;-65
2023/11/03 02:16:35;;;;;;;1.13;0.50;;;15.80;66.20;;;;;;5134062;27;20211;-65
2023/11/03 02:19:03;;;;;;;1.05;0.57;;;15.80;66.30;;;;;;5133894;27;20276;-64
2023/11/03 02:21:29;;;;;;;1.95;0.70;;;15.80;66.40;;;;;;5133523;27;20177;-65
2023/11/03 02:23:57;;;;;;;1.45;0.70;;;15.80;66.10;;;;;;5133595;27;20232;-65
2023/11/03 02:26:23;;;;;;;1.00;0.50;;;15.80;66.50;;;;;;5133629;27;20212;-64
2023/11/03 02:28:49;;;;;;;0.82;0.73;;;15.80;66.30;;;;;;5133728;27;20255;-66
2023/11/03 02:31:14;;;;;;;2.92;0.60;;;15.80;66.40;;;;;;5133413;27;20241;-64
2023/11/03 02:33:40;;;;;;;0.50;0.50;;;15.80;66.40;;;;;;5134203;27;20277;-66
2023/11/03 02:36:06;;;;;;;1.77;0.65;;;15.80;66.50;;;;;;5133038;27;20180;-66
2023/11/03 02:38:32;;;;;;;0.82;0.50;;;15.80;66.30;;;;;;5134059;27;20708;-66
2023/11/03 02:40:57;;;;;;;0.60;0.60;;;15.80;66.30;;;;;;5133801;27;20164;-66
2023/11/03 02:43:23;;;;;;;2.15;0.63;;;15.80;66.40;;;;;;5132917;27;20183;-65
2023/11/03 02:45:49;;;;;;;0.88;0.60;;;15.80;67.20;;;;;;5133761;27;20164;-66
2023/11/03 02:48:16;;;;;;;1.73;0.80;;;15.80;66.40;;;;;;5132555;27;20224;-65
2023/11/03 02:50:41;;;;;;;0.50;0.50;;;15.80;66.50;;;;;;5133665;28;20210;-65
2023/11/03 02:53:07;;;;;;;1.10;0.73;;;15.80;65.90;;;;;;5133359;28;20173;-66
2023/11/03 02:55:34;;;;;;;2.25;0.63;;;15.80;66.40;;;;;;5132896;28;20516;-67
2023/11/03 02:57:59;;;;;;;1.23;0.50;;;15.80;66.30;;;;;;5133102;28;20204;-66
2023/11/03 03:00:25;;;;;;;0.77;0.57;;;15.80;66.50;;;;;;5133566;28;20271;-66
2023/11/03 03:02:51;;;;;;;1.35;0.45;;;15.70;66.40;;;;;;5133139;28;20179;-66
2023/11/03 03:05:17;;;;;;;0.95;0.75;;;15.80;66.50;;;;;;5133425;28;20247;-65
2023/11/03 03:07:45;;;;;;;0.63;0.40;;;15.70;66.30;;;;;;5133489;28;20657;-66
2023/11/03 03:10:11;;;;;;;1.85;1.08;;;15.80;66.40;;;;;;5132485;28;20206;-65
2023/11/03 03:12:36;;;;;;;1.05;0.60;;;15.80;66.40;;;;;;5133413;28;20168;-66
2023/11/03 03:15:04;;;;;;;0.75;0.50;;;15.70;66.20;;;;;;5132816;28;20233;-65
2023/11/03 03:17:30;;;;;;;0.73;0.68;;;15.70;66.30;;;;;;5133120;28;20172;-65
2023/11/03 03:19:56;;;;;;;0.65;0.60;;;15.70;66.30;;;;;;5133748;28;20180;-65
2023/11/03 03:22:21;;;;;;;0.77;0.50;;;15.70;66.40;;;;;;5133209;28;20194;-66
2023/11/03 03:24:47;;;;;;;0.70;0.45;;;15.70;66.30;;;;;;5132935;28;20263;-65
2023/11/03 03:27:12;;;;;;;0.63;0.50;;;15.70;66.20;;;;;;5133086;28;20256;-65
2023/11/03 03:29:38;;;;;;;0.55;0.47;;;15.70;66.40;;;;;;5133562;28;20181;-65
2023/11/03 03:32:04;;;;;;;0.80;0.63;;;15.70;66.50;;;;;;5132589;28;20168;-66
2023/11/03 03:34:30;;;;;;;1.33;0.55;;;15.70;66.30;;;;;;5133549;28;20180;-66
2023/11/03 03:36:56;;;;;;;1.42;0.50;;;15.70;66.20;;;;;;5134189;27;20173;-66
2023/11/03 03:39:21;;;;;;;0.50;0.50;;;15.70;66.40;;;;;;5136074;27;20218;-66
2023/11/03 03:41:53;;;;;;;0.60;0.50;;;15.70;66.30;;;;;;5137147;27;20168;-65
2023/11/03 03:44:18;;;;;;;0.60;0.50;;;15.70;66.30;;;;;;5136560;27;20180;-65
2023/11/03 03:46:44;;;;;;;0.57;0.57;;;15.70;66.50;;;;;;5136822;27;20167;-65
2023/11/03 03:49:09;;;;;;;1.92;0.77;;;15.70;66.40;;;;;;5136554;27;20236;-66
2023/11/03 03:51:35;;;;;;;0.80;0.50;;;15.70;66.30;;;;;;5136277;27;20169;-66
2023/11/03 03:54:00;;;;;;;1.63;0.70;;;15.70;66.30;;;;;;5136635;27;20222;-66
2023/11/03 03:56:26;;;;;;;0.93;0.63;;;15.70;66.60;;;;;;5136258;27;20177;-66
2023/11/03 03:58:52;;;;;;;1.95;0.80;;;15.70;66.40;;;;;;5136099;27;20204;-66
2023/11/03 04:01:19;;;;;;;1.08;0.50;;;15.70;66.40;;;;;;5136647;27;20180;-66
2023/11/03 04:03:44;;;;;;;1.45;0.68;;;15.70;66.40;;;;;;5137006;27;20172;-66
2023/11/03 04:06:13;;;;;;;1.25;0.50;;;15.70;66.30;;;;;;5135650;27;20556;-66
2023/11/03 04:08:38;;;;;;;1.55;0.70;;;15.70;66.10;;;;;;5136644;27;20651;-66
2023/11/03 04:11:05;;;;;;;1.65;0.90;;;15.70;66.10;;;;;;5135860;27;20177;-66
2023/11/03 04:13:30;;;;;;;1.23;0.73;;;15.70;66.40;;;;;;5136048;27;20180;-66
2023/11/03 04:15:56;;;;;;;0.80;0.50;;;15.60;66.30;;;;;;5136676;27;20168;-65
2023/11/03 04:18:22;;;;;;;1.45;0.63;;;15.70;66.10;;;;;;5136096;27;20250;-66
2023/11/03 04:20:47;;;;;;;1.20;0.40;;;15.70;66.40;;;;;;5135794;27;20197;-65
2023/11/03 04:23:13;;;;;;;1.52;0.60;;;15.60;66.40;;;;;;5136050;27;20180;-65
2023/11/03 04:25:42;;;;;;;1.48;0.60;;;15.70;66.40;;;;;;5121740;27;20615;-65
2023/11/03 04:28:08;;;;;;;1.15;0.55;;;15.60;66.40;;;;;;5114637;28;20209;-65
2023/11/03 04:30:34;;;;;;;0.65;0.60;;;15.60;66.30;;;;;;5115760;28;20176;-65
2023/11/03 04:33:00;;;;;;;0.85;0.43;;;15.70;66.40;;;;;;5115421;28;20252;-67
2023/11/03 04:35:26;;;;;;;1.48;0.60;;;15.70;66.50;;;;;;5115048;28;20173;-67
2023/11/03 04:37:51;;;;;;;0.95;0.65;;;15.60;66.40;;;;;;5115469;28;20245;-66
2023/11/03 04:40:19;;;;;;;0.57;0.57;;;15.60;66.40;;;;;;5115231;28;20482;-66
2023/11/03 04:42:45;;;;;;;0.75;0.60;;;15.60;66.40;;;;;;5114828;28;20177;-66
2023/11/03 04:45:11;;;;;;;0.70;0.45;;;15.60;66.40;;;;;;5115085;28;20181;-65
2023/11/03 04:47:36;;;;;;;0.65;0.57;;;15.60;66.50;;;;;;5114473;28;20224;-65
2023/11/03 04:50:03;;;;;;;2.03;0.70;;;15.60;66.60;;;;;;5114830;28;20184;-66
2023/11/03 04:52:28;;;;;;;0.80;0.52;;;15.60;66.60;;;;;;5096971;28;20177;-66
2023/11/03 04:54:54;;;;;;;0.70;0.50;;;15.60;66.50;;;;;;5114484;28;20173;-66
2023/11/03 04:57:21;;;;;;;0.68;0.60;;;15.60;66.70;;;;;;5115046;28;20269;-66
2023/11/03 04:59:47;;;;;;;1.48;0.80;;;15.60;66.80;;;;;;5115294;28;20181;-66
2023/11/03 05:02:13;;;;;;;1.58;0.70;;;15.60;66.70;;;;;;5113912;28;20624;-64
2023/11/03 05:04:38;;;;;;;0.70;0.50;;;15.60;66.70;;;;;;5115359;28;20208;-65
2023/11/03 05:07:04;;;;;;;1.35;0.70;;;15.60;66.60;;;;;;5114773;28;20216;-65
2023/11/03 05:09:29;;;;;;;1.95;0.60;;;15.60;66.80;;;;;;5114099;28;20169;-66
2023/11/03 05:11:55;;;;;;;1.55;0.80;;;15.60;66.70;;;;;;5114681;28;20647;-66
2023/11/03 05:14:21;;;;;;;0.80;0.70;;;15.60;66.80;;;;;;5114638;28;20217;-65
2023/11/03 05:16:46;;;;;;;0.73;0.60;;;15.60;66.70;;;;;;5114092;28;20224;-65
2023/11/03 05:19:13;;;;;;;1.30;0.63;;;15.60;66.90;;;;;;5114438;28;20269;-65
2023/11/03 05:21:38;;;;;;;1.58;0.70;;;15.60;66.80;;;;;;5114741;28;20225;-66
2023/11/03 05:24:04;;;;;;;1.48;0.60;;;15.50;66.80;;;;;;5113948;28;20244;-65
2023/11/03 05:26:30;;;;;;;1.83;0.75;;;15.50;66.80;;;;;;5114824;28;20642;-65
2023/11/03 05:28:56;;;;;;;1.00;0.88;;;15.50;66.70;;;;;;5114607;28;20652;-66
2023/11/03 05:31:22;;;;;;;0.98;0.60;;;15.50;66.80;;;;;;5113537;28;20181;-66
2023/11/03 05:33:48;;;;;;;1.70;0.77;;;15.60;66.60;;;;;;5114670;28;20643;-66
2023/11/03 05:36:15;;;;;;;1.92;0.60;;;15.50;66.80;;;;;;5114094;28;20184;-66
2023/11/03 05:38:40;;;;;;;2.58;0.60;;;15.50;66.80;;;;;;5112886;28;20215;-65
2023/11/03 05:41:07;;;;;;;1.08;0.80;;;15.50;66.80;;;;;;5114194;28;20169;-66
2023/11/03 05:43:33;;;;;;;2.40;0.82;;;15.50;66.90;;;;;;5114184;28;20203;-65
2023/11/03 05:45:58;;;;;;;2.53;1.05;;;15.50;66.80;;;;;;5113138;28;20671;-65
2023/11/03 05:48:24;;;;;;;0.65;0.57;;;15.50;66.70;;;;;;5113985;28;20267;-65
2023/11/03 05:50:49;;;;;;;2.20;1.05;;;15.50;66.90;;;;;;5114270;28;20200;-65
2023/11/03 05:53:15;;;;;;;1.85;0.98;;;15.50;66.70;;;;;;5113159;28;20188;-66
2023/11/03 05:55:42;;;;;;;0.82;0.80;;;15.50;66.70;;;;;;5114032;28;20169;-66
2023/11/03 05:58:08;;;;;;;1.42;0.85;;;15.50;66.70;;;;;;5112800;28;20215;-66
2023/11/03 06:00:34;;;;;;;1.20;0.70;;;15.50;66.80;;;;;;5113440;28;20256;-65
2023/11/03 06:03:00;;;;;;;3.90;1.05;;;15.50;67.00;;;;;;5113721;28;20191;-65
2023/11/03 06:05:25;;;;;;;1.98;1.05;;;15.50;66.90;;;;;;5113305;28;20177;-65
2023/11/03 06:07:51;;;;;;;1.60;0.65;;;15.50;66.90;;;;;;5113980;28;20176;-65
2023/11/03 06:10:17;;;;;;;1.52;1.08;;;15.50;66.90;;;;;;5113694;28;20173;-66
2023/11/03 06:12:42;;;;;;;1.90;1.00;;;15.50;67.00;;;;;;5113162;28;20643;-66
2023/11/03 06:15:08;;;;;;;0.80;0.60;;;15.50;67.00;;;;;;5113449;28;20173;-65
2023/11/03 06:17:34;;;;;;;0.88;0.60;;;15.50;66.90;;;;;;5113809;28;20184;-65
2023/11/03 06:20:00;;;;;;;3.60;1.10;;;15.50;66.90;;;;;;5112378;28;20169;-66
2023/11/03 06:22:25;;;;;;;2.42;1.10;;;15.50;66.90;;;;;;5113651;28;20184;-66
2023/11/03 06:24:51;;;;;;;2.00;0.80;;;15.50;67.00;;;;;;5113856;28;20195;-65
2023/11/03 06:27:16;;;;;;;4.28;1.02;;;15.50;67.10;;;;;;5112799;28;20173;-64
2023/11/03 06:29:42;;;;;;;1.33;0.82;;;15.50;67.10;;;;;;5113565;28;20184;-65
2023/11/03 06:32:07;;;;;;;1.48;0.80;;;15.50;67.10;;;;;;5113368;28;20173;-66
2023/11/03 06:34:33;;;;;;;2.78;1.10;;;15.50;67.10;;;;;;5112793;28;20173;-66
2023/11/03 06:36:58;;;;;;;2.25;0.77;;;15.40;67.20;;;;;;5113000;28;20548;-65
2023/11/03 06:39:24;;;;;;;2.38;1.20;;;15.50;67.10;;;;;;5113431;28;20204;-65
2023/11/03 06:41:49;;;;;;;2.38;1.17;;;15.50;67.10;;;;;;5112523;28;20621;-65
2023/11/03 06:44:15;;;;;;;1.63;0.95;;;15.40;67.00;;;;;;5112830;28;20247;-65
2023/11/03 06:46:41;;;;;;;1.40;0.95;;;15.40;67.00;;;;;;5113270;28;20259;-65
2023/11/03 06:49:07;;;;;;;3.88;1.33;;;15.50;67.20;;;;;;5112177;28;20315;-66
2023/11/03 06:51:33;;;;;;;3.03;1.17;;;15.50;67.20;;;;;;5113118;28;20290;-65
2023/11/03 06:53:58;;;;;;;1.40;0.80;;;15.50;67.20;;;;;;5113169;28;20504;-66
2023/11/03 06:56:25;;;;;;;3.05;1.27;;;15.40;67.10;;;;;;5112728;28;20180;-65
2023/11/03 06:58:50;;;;;;;1.50;0.90;;;15.50;67.20;;;;;;5113184;28;20216;-66
2023/11/03 07:01:16;;;;;;;1.70;0.95;;;15.50;67.10;;;;;;5112202;28;20693;-65
2023/11/03 07:03:41;;;;;;;2.67;0.88;;;15.50;67.20;;;;;;5113182;28;20663;-66
2023/11/03 07:06:08;;;;;;;1.67;0.80;;;15.50;67.30;;;;;;5112699;28;20535;-66
2023/11/03 07:08:33;;;;;;;3.10;0.80;;;15.50;67.20;;;;;;5112588;28;20185;-66
2023/11/03 07:10:59;;;;;;;2.10;0.90;;;15.50;67.20;;;;;;5112913;28;20173;-65
2023/11/03 07:13:25;;;;;;;1.10;0.82;;;15.50;67.10;;;;;;5116202;28;20208;-66
2023/11/03 07:15:51;;;;;;;1.35;0.90;;;15.60;67.10;;;;;;5116676;28;20181;-65
2023/11/03 07:18:17;;;;;;;2.45;0.93;;;15.80;67.10;;;;;;5116605;28;20628;-65
2023/11/03 07:20:42;;;;;;;2.50;0.80;;;15.90;66.90;;;;;;5117014;28;20229;-65
2023/11/03 07:23:08;;;;;;;1.30;0.70;;;16.10;66.70;;;;;;5115909;28;20188;-65
2023/11/03 07:25:33;;;;;;;1.02;0.70;;;16.30;66.50;;;;;;5116989;28;20173;-66
2023/11/03 07:27:59;;;;;;;2.58;0.60;;;16.50;66.10;;;;;;5116522;28;20306;-65
2023/11/03 07:30:24;;;;;;;1.17;0.73;;;16.60;65.70;;;;;;5116057;28;20238;-66
2023/11/03 07:32:50;;;;;;;0.75;0.60;;;16.80;65.20;;;;;;5116767;28;20197;-66
2023/11/03 07:35:16;;;;;;;0.88;0.52;;;17.00;64.80;;;;;;5116478;28;20170;-67
2023/11/03 07:37:43;;;;;;;1.90;0.90;;;17.00;64.40;;;;;;5116096;28;20590;-67
2023/11/03 07:40:10;;;;;;;1.85;0.60;;;17.10;64.30;;;;;;5116596;28;20229;-66
2023/11/03 07:42:36;;;;;;;1.85;0.68;;;17.10;64.50;;;;;;5116657;28;20173;-65
2023/11/03 07:45:02;;;;;;;1.50;0.80;;;17.20;64.10;;;;;;5115693;28;20276;-65
2023/11/03 07:47:28;;;;;;;1.50;0.80;;;17.20;63.90;;;;;;5116397;28;20217;-65
2023/11/03 07:49:54;;;;;;;1.00;0.65;;;17.30;63.80;;;;;;5115892;28;20230;-65
2023/11/03 07:52:19;;;;;;;0.60;0.55;;;17.40;63.70;;;;;;5115605;28;20222;-65
2023/11/03 07:54:45;;;;;;;0.95;0.70;;;17.40;63.50;;;;;;5115761;28;20533;-66
2023/11/03 07:57:11;;;;;;;1.20;0.90;;;17.50;63.50;;;;;;5115714;28;20628;-66
2023/11/03 07:59:36;;;;;;;0.77;0.50;;;17.50;63.40;;;;;;5114996;28;20597;-66
2023/11/03 08:02:02;;;;;;;1.45;0.90;;;17.50;63.40;;;;;;5114107;28;20620;-66
2023/11/03 08:04:28;;;;;;;3.05;0.90;;;17.50;63.40;;;;;;5114842;28;20181;-66
2023/11/03 08:06:55;;;;;;;2.03;1.02;;;17.60;63.30;;;;;;5114710;28;20615;-66
2023/11/03 08:09:21;;;;;;;1.45;0.68;;;17.60;63.40;;;;;;5115479;28;20177;-67
2023/11/03 08:11:47;;;;;;;2.33;1.20;;;17.60;63.60;;;;;;5115185;28;20192;-67
2023/11/03 08:14:12;;;;;;;2.00;1.00;;;17.70;63.60;;;;;;5115390;28;20268;-66
2023/11/03 08:16:44;;;;;;;2.83;1.08;;;17.70;63.60;;;;;;5115946;28;20261;-66
2023/11/03 08:19:12;;;;;;;1.45;1.10;;;17.70;63.50;;;;;;5114637;28;20213;-66
2023/11/03 08:21:42;;;;;;;2.63;1.00;;;17.70;63.50;;;;;;5116194;28;20237;-66
2023/11/03 08:24:11;;;;;;;2.00;1.10;;;17.70;63.90;;;;;;5115207;28;20181;-70
2023/11/03 08:26:38;;;;;;;4.32;1.00;;;17.80;63.90;;;;;;5115181;28;20173;-71
2023/11/03 08:29:03;;;;;;;1.60;0.95;;;17.80;63.60;;;;;;5115555;28;20181;-71
2023/11/03 08:31:29;;;;;;;2.78;1.17;;;17.80;63.50;;;;;;5115771;28;20180;-72
2023/11/03 08:33:55;;;;;;;3.53;1.45;;;17.80;63.70;;;;;;5115141;28;20169;-72
2023/11/03 08:36:20;;;;;;;3.42;1.27;;;17.70;63.70;;;;;;5115557;28;20200;-71
2023/11/03 08:38:47;;;;;;;1.92;0.93;;;17.70;64.10;;;;;;5115564;28;20240;-73
2023/11/03 08:41:13;;;;;;;2.40;0.80;;;17.70;64.20;;;;;;5114521;28;20262;-72
2023/11/03 08:43:38;;;;;;;3.05;1.27;;;17.70;64.10;;;;;;5115530;28;20256;-66
2023/11/03 08:46:04;;;;;;;2.10;0.95;;;17.70;64.50;;;;;;5114666;28;20260;-65
2023/11/03 08:48:29;;;;;;;3.13;1.20;;;17.60;64.30;;;;;;5114843;28;20375;-71
2023/11/03 08:50:55;;;;;;;3.28;1.27;;;17.60;64.40;;;;;;5115586;28;20508;-68
2023/11/03 08:53:24;;;;;;;2.47;1.15;;;17.60;64.40;;;;;;5115212;28;20161;-69
2023/11/03 08:55:50;;;;;;;3.80;1.40;;;17.50;64.70;;;;;;5114689;28;20181;-68
2023/11/03 08:58:17;;;;;;;4.18;1.60;;;17.50;65.00;;;;;;5114884;28;20201;-68
2023/11/03 09:00:44;;;;;;;1.63;0.93;;;17.50;65.10;;;;;;5115350;28;20543;-67
2023/11/03 09:03:10;;;;;;;4.15;0.98;;;17.50;65.20;;;;;;5114288;28;20181;-67
2023/11/03 09:05:36;;;;;;;3.88;1.48;;;17.50;65.30;;;;;;5115020;28;20698;-71
2023/11/03 09:08:02;;;;;;;4.28;1.63;;;17.40;65.50;;;;;;5114030;28;20173;-68
2023/11/03 09:10:29;;;;;;;2.53;1.30;;;17.40;65.70;;;;;;5115015;28;20173;-68
2023/11/03 09:12:55;;;;;;;3.55;1.25;;;17.40;65.70;;;;;;5114530;28;20590;-68
2023/11/03 09:15:21;;;;;;;5.45;1.40;;;17.30;65.80;;;;;;5113739;28;20256;-69
2023/11/03 09:17:46;;;;;;;3.03;1.30;;;17.30;66.10;;;;;;5114960;28;20169;-68
2023/11/03 09:20:17;;;;;;;3.97;1.33;;;17.20;66.30;;;;;;5114300;28;20636;-69
2023/11/03 09:22:43;;;;;;;5.53;1.33;;;17.20;66.40;;;;;;5114279;28;20180;-69
2023/11/03 09:25:08;;;;;;;3.22;1.40;;;17.20;66.50;;;;;;5114642;28;20174;-68
2023/11/03 09:27:34;;;;;;;1.98;1.08;;;17.20;66.50;;;;;;5114651;28;20266;-69
2023/11/03 09:30:00;;;;;;;2.80;1.45;;;17.20;67.50;;;;;;5113697;28;20165;-68
2023/11/03 09:32:27;;;;;;;5.18;1.33;;;17.10;66.80;;;;;;5114775;28;20252;-68
2023/11/03 09:34:53;;;;;;;3.35;1.33;;;17.10;67.10;;;;;;5113592;28;20727;-68
2023/11/03 09:37:19;;;;;;;3.33;1.42;;;17.00;67.20;;;;;;5113792;28;20188;-69
2023/11/03 09:39:45;;;;;;;4.28;1.48;;;17.00;67.30;;;;;;5114616;28;20317;-69
2023/11/03 09:42:11;;;;;;;2.47;1.13;;;16.90;67.40;;;;;;5114131;28;20196;-68
2023/11/03 09:44:37;;;;;;;5.28;1.60;;;16.90;67.50;;;;;;5113599;28;20227;-67
2023/11/03 09:47:04;;;;;;;2.75;1.35;;;16.90;67.60;;;;;;5114160;28;20246;-63
2023/11/03 09:49:29;;;;;;;3.08;1.23;;;16.90;67.90;;;;;;5112262;27;20311;-63
2023/11/03 09:52:03;;;;;;;2.50;1.20;;;16.90;67.90;;;;;;5122120;27;20264;-64
2023/11/03 09:54:33;;;;;;;2.72;1.05;;;16.80;67.50;;;;;;5105577;27;20243;-65
2023/11/03 09:57:02;;;;;;;2.80;0.98;;;16.80;67.70;;;;;;5134109;27;20622;-65
2023/11/03 09:59:34;;;;;;;4.18;1.77;;;16.80;67.70;;;;;;5118416;27;20659;-65
2023/11/03 10:02:04;;;;;;;2.72;1.15;;;16.80;67.70;;;;;;5096629;28;20184;-63
2023/11/03 10:04:30;;;;;;;3.13;1.48;;;16.80;67.80;;;;;;5095795;28;20181;-65
2023/11/03 10:06:58;;;;;;;2.40;1.10;;;16.80;68.10;;;;;;5119115;27;20169;-64
2023/11/03 10:09:23;;;;;;;3.42;1.30;;;16.80;67.70;;;;;;5134518;27;20180;-65
2023/11/03 10:11:49;;;;;;;3.63;1.23;;;16.80;68.50;;;;;;5133466;27;20590;-64
2023/11/03 10:14:14;;;;;;;4.07;1.42;;;16.80;67.70;;;;;;5133945;27;20240;-64
2023/11/03 10:16:41;;;;;;;1.13;0.82;;;16.80;67.60;;;;;;5133120;27;20180;-64
2023/11/03 10:19:07;;;;;;;3.22;1.40;;;16.80;67.60;;;;;;5132538;27;20208;-64
2023/11/03 10:21:32;;;;;;;2.60;1.27;;;16.80;67.60;;;;;;5134180;27;20538;-64
2023/11/03 10:23:59;;;;;;;2.70;1.27;;;16.80;67.70;;;;;;5128048;27;20169;-64
2023/11/03 10:26:26;;;;;;;4.85;1.33;;;16.80;68.00;;;;;;5112785;28;20708;-64
2023/11/03 10:28:51;;;;;;;2.80;1.50;;;16.80;67.90;;;;;;5113694;28;20264;-64
2023/11/03 10:31:20;;;;;;;4.50;1.20;;;16.80;67.90;;;;;;5113388;28;20732;-65
2023/11/03 10:33:48;;;;;;;3.42;1.20;;;16.80;67.90;;;;;;5112730;28;20184;-64
2023/11/03 10:36:14;;;;;;;4.43;1.13;;;16.80;67.90;;;;;;5095445;28;20639;-64
2023/11/03 10:38:40;;;;;;;2.80;1.40;;;16.80;67.80;;;;;;5095309;28;20337;-65
2023/11/03 10:41:07;;;;;;;5.43;1.60;;;16.80;67.80;;;;;;5112297;28;20209;-64
2023/11/03 10:43:36;;;;;;;1.95;1.23;;;16.80;67.60;;;;;;5113368;28;20185;-64
2023/11/03 10:46:06;;;;;;;2.47;1.20;;;16.90;67.50;;;;;;5112442;28;20687;-63
2023/11/03 10:48:44;;;;;;;3.35;1.50;;;16.80;67.50;;;;;;5112314;28;20766;-63
2023/11/03 10:51:24;;;;;;;2.80;1.30;;;16.90;67.60;;;;;;5094923;28;20593;-63
2023/11/03 10:53:59;;;;;;;2.60;1.10;;;16.80;67.50;;;;;;5094368;28;20161;-65
2023/11/03 10:56:25;;;;;;;4.22;1.40;;;16.80;67.50;;;;;;5113363;28;20210;-65
2023/11/03 10:58:51;;;;;;;4.47;1.40;;;16.80;67.60;;;;;;5107122;28;20279;-64
2023/11/03 11:01:46;;;;;;;3.58;1.20;;;16.70;67.80;;;;;;5132676;28;20176;-64
2023/11/03 11:04:27;;;;;;;3.00;1.30;;;16.70;68.00;;;;;;5112986;28;20184;-65
2023/11/03 11:07:00;;;;;;;3.33;1.30;;;16.70;67.90;;;;;;5100055;28;20183;-65
2023/11/03 11:09:54;;;;;;;2.65;1.30;;;16.60;68.00;;;;;;5091454;28;20173;-65
2023/11/03 11:12:20;;;;;;;2.55;1.10;;;16.60;68.10;;;;;;5111814;28;20268;-64
2023/11/03 11:14:46;;;;;;;4.53;1.05;;;16.60;68.30;;;;;;5132934;28;20292;-64
2023/11/03 11:17:23;;;;;;;3.28;1.40;;;16.60;67.90;;;;;;5090751;28;20198;-64
2023/11/03 11:19:52;;;;;;;4.25;1.20;;;16.60;67.90;;;;;;5111902;28;20299;-64
2023/11/03 11:22:22;;;;;;;2.78;1.10;;;16.60;67.90;;;;;;5111029;28;20177;-64
2023/11/03 11:24:50;;;;;;;4.60;1.58;;;16.60;68.00;;;;;;5094979;28;20636;-66
2023/11/03 11:27:20;;;;;;;4.80;1.65;;;16.60;68.00;;;;;;5094800;28;20181;-65
2023/11/03 11:29:49;;;;;;;4.68;1.70;;;16.70;67.90;;;;;;5112172;28;20173;-65
2023/11/03 11:32:15;;;;;;;2.25;1.30;;;16.70;68.10;;;;;;5112583;28;20176;-64
2023/11/03 11:34:41;;;;;;;2.88;1.40;;;16.70;67.60;;;;;;5077978;28;20181;-65
2023/11/03 11:37:25;;;;;;;3.47;1.20;;;16.60;67.90;;;;;;5111703;28;20173;-65
2023/11/03 11:39:52;;;;;;;3.28;1.45;;;16.60;67.50;;;;;;5112618;28;20201;-65
2023/11/03 11:42:18;;;;;;;2.28;1.30;;;16.60;67.70;;;;;;5115615;28;20176;-62
2023/11/03 11:44:44;;;;;;;1.95;1.02;;;16.60;67.70;;;;;;5114504;28;20176;-63
2023/11/03 11:47:09;;;;;;;4.22;1.40;;;16.60;67.80;;;;;;5097593;28;20180;-64
2023/11/03 11:49:35;;;;;;;4.43;1.67;;;16.60;67.30;;;;;;5133036;28;20176;-65
2023/11/03 11:52:00;;;;;;;3.78;1.58;;;16.60;67.60;;;;;;5096910;28;20179;-65
2023/11/03 11:54:26;;;;;;;6.57;1.67;;;16.50;67.70;;;;;;5114864;28;20184;-65
2023/11/03 11:56:51;;;;;;;5.10;1.70;;;16.50;67.10;;;;;;5132574;27;20191;-64
2023/11/03 11:59:21;;;;;;;3.58;1.17;;;16.50;67.40;;;;;;5119294;28;20258;-64
2023/11/03 12:01:47;;;;;;;3.80;1.50;;;16.60;67.20;;;;;;5116168;28;20173;-65
2023/11/03 12:04:13;;;;;;;3.00;1.55;;;16.60;66.60;;;;;;5115197;28;20207;-63
2023/11/03 12:06:40;;;;;;;3.22;1.42;;;16.60;67.50;;;;;;5116184;28;20178;-65
2023/11/03 12:09:07;;;;;;;5.75;1.35;;;16.60;67.60;;;;;;5116022;28;20181;-63
2023/11/03 12:11:32;;;;;;;2.47;1.33;;;16.60;67.50;;;;;;5115419;28;20531;-63
2023/11/03 12:13:58;;;;;;;4.40;1.65;;;16.50;67.60;;;;;;5115975;28;20173;-64
2023/11/03 12:16:26;;;;;;;3.58;1.25;;;16.60;67.40;;;;;;5119132;27;20631;-63
2023/11/03 12:18:54;;;;;;;3.55;1.20;;;16.60;67.20;;;;;;5135864;27;20212;-63
2023/11/03 12:21:20;;;;;;;6.35;2.17;;;16.60;67.20;;;;;;5136292;27;20208;-64
2023/11/03 12:23:46;;;;;;;5.32;1.40;;;16.60;67.40;;;;;;5136464;27;20172;-64
2023/11/03 12:26:12;;;;;;;3.28;1.52;;;16.60;67.50;;;;;;5117112;27;20172;-65
2023/11/03 12:28:39;;;;;;;12.43;1.90;;;16.70;67.10;;;;;;5136436;27;20175;-66
2023/11/03 12:31:05;;;;;;;6.13;1.67;;;16.70;66.80;;;;;;5135556;27;20399;-64
2023/11/03 12:33:34;;;;;;;4.55;1.73;;;16.80;66.90;;;;;;5135755;27;20172;-64
2023/11/03 12:36:00;;;;;;;5.70;1.33;;;16.70;67.20;;;;;;5100875;27;20180;-64
2023/11/03 12:38:26;;;;;;;7.28;1.55;;;16.70;66.90;;;;;;5117834;27;20235;-64
2023/11/03 12:40:51;;;;;;;9.57;2.58;;;16.80;67.10;;;;;;5135359;27;20251;-63
2023/11/03 12:43:19;;;;;;;6.38;1.63;;;16.80;67.00;;;;;;5135735;27;20656;-63